createdAt,value
2023-02-14T00:04:59.532Z,4.04
2023-02-14T00:10:06.854Z,4.03
2023-02-14T00:15:24.080Z,4.01
2023-02-14T00:20:31.298Z,4.01
2023-02-14T00:25:38.096Z,4.00
2023-02-14T00:30:47.650Z,4.00
2023-02-14T00:35:54.187Z,3.98
2023-02-14T00:41:01.230Z,3.97
2023-02-14T00:46:09.524Z,3.96
2023-02-14T00:51:18.657Z,3.91
2023-02-14T00:56:26.922Z,3.93
2023-02-14T01:01:35.023Z,3.93
2023-02-14T01:06:42.252Z,3.91
2023-02-14T01:11:49.169Z,3.88
2023-02-14T01:16:57.228Z,3.83
2023-02-14T01:22:04.548Z,3.82
2023-02-14T01:27:11.680Z,3.82
2023-02-14T01:32:20.105Z,3.81
2023-02-14T01:37:26.927Z,3.80
2023-02-14T01:42:35.075Z,3.78
2023-02-14T01:47:46.409Z,3.77
2023-02-14T01:52:57.342Z,3.74
2023-02-14T01:58:08.114Z,3.72
2023-02-14T02:03:17.756Z,3.69
2023-02-14T02:08:24.618Z,3.68
2023-02-14T02:13:30.952Z,3.69
2023-02-14T02:18:58.783Z,3.67
2023-02-14T02:24:33.092Z,3.65
2023-02-14T02:30:23.910Z,3.65
2023-02-14T02:36:06.885Z,3.62
2023-02-14T02:41:24.906Z,3.62
2023-02-14T02:46:48.974Z,3.60
2023-02-14T02:52:17.324Z,3.57
2023-02-14T02:57:28.591Z,3.56
2023-02-14T03:03:00.427Z,3.56
2023-02-14T03:08:12.799Z,3.54
2023-02-14T03:14:09.967Z,3.54
2023-02-14T03:20:06.162Z,3.52
2023-02-14T03:25:33.094Z,3.50
2023-02-14T03:30:48.451Z,3.52
2023-02-14T03:36:03.259Z,3.48
2023-02-14T03:41:17.135Z,3.47
2023-02-14T03:46:29.775Z,3.47
2023-02-14T03:51:38.018Z,3.46
2023-02-14T03:56:52.424Z,3.47
2023-02-14T04:02:08.460Z,3.44
2023-02-14T04:07:18.440Z,3.44
2023-02-14T04:12:37.187Z,3.41
2023-02-14T04:18:02.313Z,3.42
2023-02-14T04:23:08.513Z,3.41
2023-02-14T04:28:17.199Z,3.41
2023-02-14T04:33:23.535Z,3.40
2023-02-14T04:38:29.915Z,3.41
2023-02-14T04:43:37.528Z,3.39
2023-02-14T04:48:45.240Z,3.36
2023-02-14T04:53:52.762Z,3.36
2023-02-14T04:59:01.095Z,3.37
2023-02-14T05:04:08.151Z,3.37
2023-02-14T05:09:14.765Z,3.33
2023-02-14T05:14:23.995Z,3.29
2023-02-14T05:19:30.459Z,3.28
2023-02-14T05:24:36.740Z,3.28
2023-02-14T05:29:44.471Z,3.30
2023-02-14T05:34:50.882Z,3.26
2023-02-14T05:39:57.246Z,3.27
2023-02-14T05:45:05.476Z,3.27
2023-02-14T05:50:13.249Z,3.26
2023-02-14T05:55:20.071Z,3.26
2023-02-14T06:00:31.175Z,3.24
2023-02-14T06:05:37.825Z,3.23
2023-02-14T06:10:44.015Z,3.23
2023-02-14T06:15:51.804Z,3.23
2023-02-14T06:20:58.464Z,3.19
2023-02-14T06:26:08.056Z,3.17
2023-02-14T06:31:19.471Z,3.14
2023-02-14T06:36:26.134Z,3.15
2023-02-14T06:41:32.658Z,3.14
2023-02-14T06:46:40.439Z,3.11
2023-02-14T06:51:46.823Z,3.14
2023-02-14T06:56:53.303Z,3.13
2023-02-14T07:02:01.001Z,3.12
2023-02-14T07:07:07.401Z,3.12
2023-02-14T07:12:13.453Z,3.11
2023-02-14T07:17:21.164Z,3.10
2023-02-14T07:22:29.089Z,3.12
2023-02-14T07:27:35.985Z,3.10
2023-02-14T07:32:44.053Z,3.10
2023-02-14T07:37:52.700Z,3.10
2023-02-14T07:43:01.217Z,3.10
2023-02-14T07:48:09.189Z,3.08
2023-02-14T07:53:16.178Z,3.06
2023-02-14T07:58:22.554Z,3.08
2023-02-14T08:03:30.314Z,3.08
2023-02-14T08:08:36.714Z,3.06
2023-02-14T08:13:43.635Z,3.04
2023-02-14T08:18:51.606Z,3.05
2023-02-14T08:23:59.087Z,3.09
2023-02-14T08:29:05.813Z,3.10
2023-02-14T08:34:13.726Z,3.13
2023-02-14T08:39:20.137Z,3.13
2023-02-14T08:44:26.796Z,3.17
2023-02-14T08:49:34.727Z,3.18
2023-02-14T08:54:41.493Z,3.23
2023-02-14T08:59:47.834Z,3.25
2023-02-14T09:04:55.984Z,3.28
2023-02-14T09:10:02.407Z,3.31
2023-02-14T09:15:11.556Z,3.33
2023-02-14T09:20:20.011Z,3.34
2023-02-14T09:25:26.360Z,3.38
2023-02-14T09:30:32.908Z,3.38
2023-02-14T09:35:40.949Z,3.39
2023-02-14T09:40:48.777Z,3.43
2023-02-14T09:45:58.376Z,3.45
2023-02-14T09:51:10.244Z,3.49
2023-02-14T09:56:27.641Z,3.51
2023-02-14T10:01:39.369Z,3.52
2023-02-14T10:06:55.726Z,3.58
2023-02-14T10:12:03.743Z,3.62
2023-02-14T10:17:17.394Z,3.66
2023-02-14T10:22:32.732Z,3.68
2023-02-14T10:27:42.745Z,3.73
2023-02-14T10:32:52.000Z,3.80
2023-02-14T10:38:11.964Z,3.87
2023-02-14T10:43:32.205Z,3.89
2023-02-14T10:48:53.347Z,3.91
2023-02-14T10:54:18.656Z,3.99
2023-02-14T10:59:29.304Z,4.01
2023-02-14T11:04:37.302Z,4.01
2023-02-14T11:09:45.238Z,4.05
2023-02-14T11:15:21.942Z,4.08
2023-02-14T11:20:31.707Z,4.15
2023-02-14T11:25:39.921Z,4.21
2023-02-14T11:30:49.765Z,4.25
2023-02-14T11:35:56.768Z,4.29
2023-02-14T11:41:06.465Z,4.32
2023-02-14T11:46:26.603Z,4.41
2023-02-14T11:51:37.537Z,4.46
2023-02-14T11:56:56.642Z,4.49
2023-02-14T12:02:15.661Z,4.52
2023-02-14T12:07:27.870Z,4.57
2023-02-14T12:12:36.356Z,4.63
2023-02-14T12:17:47.976Z,4.63
2023-02-14T12:23:03.192Z,4.66
2023-02-14T12:28:16.888Z,4.70
2023-02-14T12:33:26.293Z,4.68
2023-02-14T12:38:48.228Z,4.74
2023-02-14T12:43:58.682Z,4.82
2023-02-14T12:49:51.176Z,4.86
2023-02-14T12:55:19.888Z,4.92
2023-02-14T13:00:40.032Z,4.95
2023-02-14T13:05:59.415Z,5.00
2023-02-14T13:11:17.449Z,5.07
2023-02-14T13:16:36.197Z,5.07
2023-02-14T13:21:44.826Z,5.13
2023-02-14T13:26:55.744Z,5.19
2023-02-14T13:32:05.469Z,5.23
2023-02-14T13:37:17.603Z,5.25
2023-02-14T13:42:54.992Z,5.30
2023-02-14T13:48:08.522Z,5.28
2023-02-14T13:53:30.593Z,5.26
2023-02-14T13:58:37.880Z,5.31
2023-02-14T14:04:03.251Z,5.29
2023-02-14T14:09:13.741Z,5.28
2023-02-14T14:14:36.948Z,5.29
2023-02-14T14:19:47.101Z,5.29
2023-02-14T14:25:01.168Z,5.31
2023-02-14T14:30:19.654Z,5.29
2023-02-14T14:35:28.209Z,5.30
2023-02-14T14:40:37.535Z,5.29
2023-02-14T14:45:47.386Z,5.26
2023-02-14T14:50:55.677Z,5.28
2023-02-14T14:56:03.484Z,5.27
2023-02-14T15:01:21.682Z,5.26
2023-02-14T15:06:29.906Z,5.25
2023-02-14T15:11:54.662Z,5.18
2023-02-14T15:17:05.734Z,5.18
2023-02-14T15:22:23.226Z,5.16
2023-02-14T15:27:31.000Z,5.13
2023-02-14T15:32:39.648Z,5.11
2023-02-14T15:37:50.653Z,5.08
2023-02-14T15:42:58.627Z,5.03
2023-02-14T15:48:14.603Z,4.98
2023-02-14T15:53:45.233Z,4.94
2023-02-14T15:58:56.271Z,4.93
2023-02-14T16:04:07.419Z,4.85
2023-02-14T16:09:30.099Z,4.82
2023-02-14T16:14:42.763Z,4.77
2023-02-14T16:19:50.048Z,4.72
2023-02-14T16:25:00.117Z,4.66
2023-02-14T16:30:09.914Z,4.60
2023-02-14T16:35:23.841Z,4.52
2023-02-14T16:40:35.348Z,4.42
2023-02-14T16:45:42.763Z,4.34
2023-02-14T16:50:50.104Z,4.28
2023-02-14T16:56:02.022Z,4.20
2023-02-14T17:01:10.965Z,4.12
2023-02-14T17:06:20.012Z,4.07
2023-02-14T17:11:30.972Z,4.01
2023-02-14T17:16:41.172Z,3.94
2023-02-14T17:21:52.575Z,3.89
2023-02-14T17:27:06.210Z,3.84
2023-02-14T17:32:15.513Z,3.74
2023-02-14T17:37:25.687Z,3.68
2023-02-14T17:42:38.668Z,3.63
2023-02-14T17:47:46.926Z,3.54
2023-02-14T17:52:58.246Z,3.50
2023-02-14T17:58:10.345Z,3.42
2023-02-14T18:03:19.428Z,3.38
2023-02-14T18:08:37.161Z,3.32
2023-02-14T18:13:50.128Z,3.26
2023-02-14T18:19:00.308Z,3.23
2023-02-14T18:24:11.468Z,3.15
2023-02-14T18:29:24.643Z,3.09
2023-02-14T18:34:38.630Z,2.96
2023-02-14T18:39:47.532Z,2.89
2023-02-14T18:44:59.146Z,2.75
2023-02-14T18:50:14.180Z,2.71
2023-02-14T18:55:27.998Z,2.67
2023-02-14T19:00:40.279Z,2.64
2023-02-14T19:05:57.184Z,2.63
2023-02-14T19:11:12.708Z,2.57
2023-02-14T19:16:30.242Z,2.56
2023-02-14T19:21:41.497Z,2.52
2023-02-14T19:26:50.427Z,2.49
2023-02-14T19:32:01.069Z,2.38
2023-02-14T19:37:21.976Z,2.28
2023-02-14T19:42:43.479Z,2.17
2023-02-14T19:47:58.483Z,2.10
2023-02-14T19:53:12.737Z,1.97
2023-02-14T19:58:23.557Z,1.91
2023-02-14T20:03:38.754Z,1.87
2023-02-14T20:08:48.677Z,1.82
2023-02-14T20:14:00.440Z,1.72
2023-02-14T20:19:20.264Z,1.67
2023-02-14T20:24:33.169Z,1.55
2023-02-14T20:29:44.443Z,1.25
2023-02-14T20:35:06.255Z,1.27
2023-02-14T20:40:20.306Z,1.25
2023-02-14T20:45:30.748Z,1.27
2023-02-14T20:50:49.560Z,1.18
2023-02-14T20:56:05.048Z,1.05
2023-02-14T21:01:16.494Z,1.07
2023-02-14T21:06:37.395Z,1.15
2023-02-14T21:11:47.761Z,1.13
2023-02-14T21:17:01.378Z,1.15
2023-02-14T21:22:14.393Z,1.14
2023-02-14T21:27:24.273Z,1.13
2023-02-14T21:32:36.284Z,1.15
2023-02-14T21:37:47.462Z,1.07
2023-02-14T21:42:57.878Z,1.02
2023-02-14T21:48:25.027Z,0.99
2023-02-14T21:53:37.854Z,1.00
2023-02-14T21:58:47.251Z,0.99
2023-02-14T22:03:58.193Z,0.91
2023-02-14T22:09:08.623Z,0.73
2023-02-14T22:14:17.036Z,0.53
2023-02-14T22:19:24.524Z,0.64
2023-02-14T22:24:32.513Z,0.68
2023-02-14T22:29:39.135Z,0.54
2023-02-14T22:34:46.850Z,0.52
2023-02-14T22:39:55.005Z,0.58
2023-02-14T22:45:01.540Z,0.64
2023-02-14T22:50:10.916Z,0.62
2023-02-14T22:55:19.562Z,0.60
2023-02-14T23:00:26.749Z,0.58
2023-02-14T23:05:33.274Z,0.57
2023-02-14T23:10:41.159Z,0.61
2023-02-14T23:16:05.033Z,0.63
2023-02-14T23:21:33.120Z,0.68
2023-02-14T23:26:41.159Z,0.69
2023-02-14T23:31:47.955Z,0.79
2023-02-14T23:36:57.876Z,0.85
2023-02-14T23:42:05.965Z,0.91
2023-02-14T23:47:13.244Z,0.95
2023-02-14T23:52:19.744Z,1.03
2023-02-14T23:57:28.933Z,1.08
